Time;durP1;ratioP1;P1;durP2;ratioP2;P2;SDS_P1;SDS_P2;PMS_P1;PMS_P2;Temp;Humidity;BMP_temperature;BMP_pressure;BME280_temperature;BME280_humidity;BME280_pressure;Samples;Min_cycle;Max_cycle;Signal;HPM_P1;HPM_P2
2022/01/06 00:01:48;;;;;;;1.48;0.70;;;4.10;99.90;;;;;;5157700;27;20416;-59
2022/01/06 00:04:16;;;;;;;1.60;0.60;;;4.20;99.90;;;;;;5157369;27;20496;-59
2022/01/06 00:06:43;;;;;;;1.50;0.53;;;4.20;99.90;;;;;;5157168;27;20602;-58
2022/01/06 00:09:15;;;;;;;2.40;0.60;;;4.40;99.90;;;;;;5157505;27;20451;-59
2022/01/06 00:11:42;;;;;;;0.90;0.50;;;4.40;99.90;;;;;;5158262;27;20437;-59
2022/01/06 00:14:15;;;;;;;1.60;0.70;;;4.40;99.90;;;;;;5159299;27;20532;-58
2022/01/06 00:16:47;;;;;;;1.80;0.60;;;4.20;99.90;;;;;;5158882;27;20493;-59
2022/01/06 00:24:56;;;;;;;2.10;0.60;;;3.80;99.90;;;;;;5157216;27;20396;-58
2022/01/06 00:27:23;;;;;;;1.50;0.60;;;3.80;99.90;;;;;;5156529;27;20721;-58
2022/01/06 00:29:49;;;;;;;1.48;0.55;;;3.70;99.90;;;;;;5156187;27;20519;-59
2022/01/06 00:32:16;;;;;;;1.70;0.60;;;3.80;99.90;;;;;;5156332;27;20411;-59
2022/01/06 00:34:43;;;;;;;2.10;0.60;;;3.80;99.90;;;;;;5156357;27;20496;-59
2022/01/06 00:37:18;;;;;;;2.05;0.63;;;3.80;99.90;;;;;;5155955;27;20773;-58
2022/01/06 00:39:46;;;;;;;1.77;0.57;;;3.80;99.90;;;;;;5155330;27;20420;-58
2022/01/06 00:42:13;;;;;;;1.45;0.50;;;3.80;99.90;;;;;;5155581;27;20421;-59
2022/01/06 00:44:40;;;;;;;2.03;0.50;;;3.90;99.90;;;;;;5155603;27;20484;-58
2022/01/06 00:47:07;;;;;;;1.40;0.50;;;3.90;99.90;;;;;;5156199;27;20758;-58
2022/01/06 00:49:34;;;;;;;2.60;0.50;;;4.00;99.90;;;;;;5156898;27;20727;-58
2022/01/06 00:52:01;;;;;;;1.70;0.70;;;4.00;99.90;;;;;;5157517;27;20425;-58
2022/01/06 00:54:30;;;;;;;1.90;0.70;;;4.00;99.90;;;;;;5157635;27;20440;-58
2022/01/06 00:56:58;;;;;;;3.55;0.50;;;3.90;99.90;;;;;;5157649;27;20416;-58
2022/01/06 00:59:25;;;;;;;2.53;0.70;;;3.80;99.90;;;;;;5157628;27;20512;-59
2022/01/06 01:01:52;;;;;;;2.67;0.60;;;3.80;99.90;;;;;;5157821;27;20915;-58
2022/01/06 01:04:18;;;;;;;1.52;0.60;;;3.80;99.90;;;;;;5157818;27;20424;-58
2022/01/06 01:06:45;;;;;;;3.58;0.70;;;3.70;99.90;;;;;;5156081;27;20447;-58
2022/01/06 01:09:12;;;;;;;2.13;0.60;;;3.60;99.90;;;;;;5157310;27;20413;-58
2022/01/06 01:11:39;;;;;;;2.53;0.60;;;3.70;99.90;;;;;;5156223;27;20511;-58
2022/01/06 01:14:17;;;;;;;1.92;0.60;;;3.80;99.90;;;;;;5156493;27;20776;-58
2022/01/06 01:16:53;;;;;;;3.80;0.60;;;3.80;99.90;;;;;;5155715;27;20739;-58
2022/01/06 01:19:20;;;;;;;1.20;0.60;;;4.00;99.90;;;;;;5155642;27;20417;-58
2022/01/06 01:21:49;;;;;;;2.60;0.60;;;4.00;99.90;;;;;;5156569;27;20425;-58
2022/01/06 01:24:17;;;;;;;3.17;0.70;;;4.00;99.90;;;;;;5155657;27;20582;-58
2022/01/06 01:26:44;;;;;;;1.80;0.60;;;4.00;99.90;;;;;;5154859;27;20421;-58
2022/01/06 01:29:17;;;;;;;2.08;0.63;;;4.00;99.90;;;;;;5154433;27;20404;-58
2022/01/06 01:31:47;;;;;;;2.30;0.70;;;4.10;99.90;;;;;;5153101;27;20432;-58
2022/01/06 01:34:20;;;;;;;1.60;0.60;;;4.10;99.90;;;;;;5153900;27;20776;-59
2022/01/06 01:36:47;;;;;;;2.60;0.60;;;4.20;99.90;;;;;;5151794;27;20432;-58
2022/01/06 01:39:14;;;;;;;0.90;0.50;;;4.40;99.90;;;;;;5150532;27;20465;-59
2022/01/06 01:41:42;;;;;;;2.60;0.60;;;4.30;99.90;;;;;;5150616;27;20650;-59
2022/01/06 01:44:14;;;;;;;1.50;0.60;;;4.20;99.90;;;;;;5150434;27;20507;-58
2022/01/06 01:46:46;;;;;;;2.58;0.60;;;4.20;99.90;;;;;;5151926;27;20433;-59
2022/01/06 01:49:28;;;;;;;2.65;0.60;;;4.20;99.90;;;;;;5154208;27;20842;-59
2022/01/06 01:51:56;;;;;;;1.97;0.60;;;4.20;99.90;;;;;;5154826;27;20735;-59
2022/01/06 01:54:23;;;;;;;1.70;0.50;;;4.00;99.90;;;;;;5156154;27;20468;-59
2022/01/06 01:56:51;;;;;;;1.43;0.70;;;3.80;99.90;;;;;;5156721;27;20810;-59
2022/01/06 01:59:18;;;;;;;1.60;0.50;;;3.70;99.90;;;;;;5156636;27;20438;-59
2022/01/06 02:01:46;;;;;;;1.70;0.60;;;3.80;99.90;;;;;;5156493;27;20511;-58
2022/01/06 02:04:14;;;;;;;2.10;0.60;;;4.00;99.90;;;;;;5156511;27;20484;-59
2022/01/06 02:06:41;;;;;;;1.90;0.60;;;4.00;99.90;;;;;;5157209;27;20417;-59
2022/01/06 02:09:08;;;;;;;0.80;0.50;;;4.00;99.90;;;;;;5156568;27;20499;-58
2022/01/06 02:11:35;;;;;;;2.35;0.60;;;3.90;99.90;;;;;;5156510;27;20528;-58
2022/01/06 02:14:05;;;;;;;1.80;0.60;;;3.90;99.90;;;;;;5157120;27;20416;-59
2022/01/06 02:16:31;;;;;;;0.97;0.53;;;4.00;99.90;;;;;;5156671;27;20416;-59
2022/01/06 02:19:03;;;;;;;2.00;0.60;;;4.10;99.90;;;;;;5156554;27;20451;-59
2022/01/06 02:21:31;;;;;;;0.90;0.57;;;4.20;99.90;;;;;;5156709;27;20504;-59
2022/01/06 02:23:58;;;;;;;1.00;0.50;;;4.30;99.90;;;;;;5156169;27;20450;-59
2022/01/06 02:26:25;;;;;;;3.42;0.60;;;4.20;99.90;;;;;;5155706;27;20507;-59
2022/01/06 02:28:51;;;;;;;1.00;0.50;;;4.20;99.90;;;;;;5154862;27;20508;-59
2022/01/06 02:31:20;;;;;;;1.90;0.60;;;4.20;99.90;;;;;;5154714;27;20531;-59
2022/01/06 02:33:48;;;;;;;3.75;0.70;;;4.20;99.90;;;;;;5154425;27;20465;-59
2022/01/06 02:36:15;;;;;;;1.60;0.60;;;4.10;99.90;;;;;;5152074;27;20521;-59
2022/01/06 02:38:44;;;;;;;2.70;0.60;;;4.10;99.90;;;;;;5152124;27;20491;-59
2022/01/06 02:41:10;;;;;;;3.17;0.60;;;4.10;99.90;;;;;;5153305;27;20776;-59
2022/01/06 02:43:37;;;;;;;1.25;0.50;;;4.10;99.90;;;;;;5153926;27;20496;-59
2022/01/06 02:46:04;;;;;;;2.85;0.60;;;4.20;99.90;;;;;;5154256;27;20844;-63
2022/01/06 02:48:31;;;;;;;1.58;0.80;;;4.40;99.90;;;;;;5153573;27;20501;-59
2022/01/06 02:50:58;;;;;;;2.10;0.50;;;4.40;99.90;;;;;;5154152;27;20431;-58
2022/01/06 02:53:25;;;;;;;1.50;0.60;;;4.40;99.90;;;;;;5154628;27;20465;-59
2022/01/06 02:55:53;;;;;;;2.30;0.50;;;4.30;99.90;;;;;;5154875;27;20511;-58
2022/01/06 02:58:22;;;;;;;1.77;0.60;;;4.20;99.90;;;;;;5154580;27;20827;-59
2022/01/06 03:00:49;;;;;;;1.88;0.50;;;4.20;99.90;;;;;;5158292;27;20417;-59
2022/01/06 03:03:17;;;;;;;2.10;0.60;;;4.10;99.90;;;;;;5158449;27;20511;-58
2022/01/06 03:05:43;;;;;;;1.80;0.60;;;3.90;99.90;;;;;;5159328;27;20930;-58
2022/01/06 03:08:10;;;;;;;2.92;0.50;;;3.90;99.90;;;;;;5158308;27;20411;-58
2022/01/06 03:10:41;;;;;;;1.60;0.60;;;3.90;99.90;;;;;;5148825;27;20460;-58
2022/01/06 03:13:12;;;;;;;1.10;0.50;;;3.80;99.90;;;;;;5154149;27;20420;-59
2022/01/06 03:15:39;;;;;;;2.17;0.80;;;4.00;99.90;;;;;;5139795;27;20422;-58
2022/01/06 03:18:06;;;;;;;1.40;0.57;;;4.10;99.90;;;;;;5157832;27;20416;-58
2022/01/06 03:20:36;;;;;;;0.90;0.50;;;4.20;99.90;;;;;;5141845;27;20517;-59
2022/01/06 03:23:02;;;;;;;1.00;0.50;;;4.20;99.90;;;;;;5150781;27;20508;-58
2022/01/06 03:25:29;;;;;;;2.05;0.50;;;4.10;99.90;;;;;;5154678;27;20515;-58
2022/01/06 03:27:56;;;;;;;1.25;0.50;;;4.00;99.90;;;;;;5158855;27;20412;-59
2022/01/06 03:30:25;;;;;;;1.70;0.60;;;4.00;99.90;;;;;;5157097;27;20464;-59
2022/01/06 03:32:52;;;;;;;1.40;0.50;;;4.10;99.90;;;;;;5158495;27;20863;-59
2022/01/06 03:35:23;;;;;;;1.15;0.50;;;4.30;99.90;;;;;;5141410;27;20525;-60
2022/01/06 03:37:51;;;;;;;1.07;0.50;;;4.40;99.90;;;;;;5155936;27;20912;-59
2022/01/06 03:40:18;;;;;;;2.15;0.50;;;4.40;99.90;;;;;;5143934;27;20448;-59
2022/01/06 03:42:45;;;;;;;1.52;0.90;;;4.40;99.90;;;;;;5143803;27;20415;-58
2022/01/06 03:45:14;;;;;;;1.80;0.60;;;4.40;99.90;;;;;;5156377;27;20507;-58
2022/01/06 03:47:42;;;;;;;1.00;0.50;;;4.30;99.90;;;;;;5156945;27;20504;-59
2022/01/06 03:50:11;;;;;;;2.00;0.50;;;4.30;99.90;;;;;;5154015;27;20505;-58
2022/01/06 03:52:39;;;;;;;1.60;0.47;;;4.30;99.90;;;;;;5144898;27;20517;-59
2022/01/06 03:55:08;;;;;;;1.00;0.43;;;4.40;99.90;;;;;;5155170;27;20413;-59
2022/01/06 03:57:35;;;;;;;1.57;0.60;;;4.40;99.90;;;;;;5141039;27;20919;-58
2022/01/06 04:00:02;;;;;;;1.80;0.50;;;4.40;99.90;;;;;;5148903;27;20425;-59
2022/01/06 04:02:29;;;;;;;1.00;0.40;;;4.40;99.90;;;;;;5154756;27;20440;-59
2022/01/06 04:05:00;;;;;;;1.00;0.50;;;4.50;99.90;;;;;;5155675;27;20512;-59
2022/01/06 04:07:29;;;;;;;1.60;0.50;;;4.50;99.90;;;;;;5154614;27;20409;-59
2022/01/06 04:09:56;;;;;;;0.80;0.45;;;4.50;99.90;;;;;;5145259;27;20909;-59
2022/01/06 04:12:23;;;;;;;0.90;0.50;;;4.70;99.90;;;;;;5147845;27;20433;-60
2022/01/06 04:14:50;;;;;;;0.80;0.50;;;4.80;99.90;;;;;;5139437;27;20429;-58
2022/01/06 04:17:17;;;;;;;0.70;0.40;;;4.60;99.90;;;;;;5156448;27;20500;-58
2022/01/06 04:19:44;;;;;;;1.60;0.52;;;4.70;99.90;;;;;;5155308;27;20504;-58
2022/01/06 04:22:12;;;;;;;1.10;0.40;;;4.50;99.90;;;;;;5162685;27;20907;-58
2022/01/06 04:24:39;;;;;;;0.93;0.50;;;4.30;99.90;;;;;;5158483;27;20500;-58
2022/01/06 04:27:06;;;;;;;1.90;0.50;;;4.20;99.90;;;;;;5172624;27;20411;-59
2022/01/06 04:29:33;;;;;;;1.60;0.40;;;4.10;99.90;;;;;;5179441;27;20411;-59
2022/01/06 04:32:02;;;;;;;0.80;0.50;;;4.20;99.90;;;;;;5179073;27;20816;-58
2022/01/06 04:34:29;;;;;;;0.90;0.60;;;4.10;99.90;;;;;;5179210;27;20443;-57
2022/01/06 04:36:58;;;;;;;1.13;0.70;;;4.00;99.90;;;;;;5179144;27;20443;-58
2022/01/06 04:39:26;;;;;;;0.73;0.50;;;4.10;99.90;;;;;;5179227;27;20403;-59
2022/01/06 04:41:53;;;;;;;1.70;0.60;;;4.20;99.90;;;;;;5179380;27;20449;-59
2022/01/06 04:44:20;;;;;;;0.80;0.57;;;4.20;99.90;;;;;;5178972;27;20852;-58
2022/01/06 04:46:47;;;;;;;1.20;0.50;;;4.30;99.90;;;;;;5179005;27;20415;-59
2022/01/06 04:49:14;;;;;;;1.80;0.50;;;4.30;99.90;;;;;;5178954;27;20498;-58
2022/01/06 04:51:41;;;;;;;1.40;0.60;;;4.30;99.90;;;;;;5178626;27;20434;-59
2022/01/06 04:54:09;;;;;;;2.00;0.60;;;4.20;99.90;;;;;;5178928;27;20509;-58
2022/01/06 04:56:37;;;;;;;2.42;0.50;;;4.30;99.90;;;;;;5179421;27;20671;-58
2022/01/06 04:59:05;;;;;;;1.30;0.60;;;4.30;99.90;;;;;;5178711;27;20506;-58
2022/01/06 05:01:32;;;;;;;1.90;0.50;;;4.30;99.90;;;;;;5178481;27;20935;-58
2022/01/06 05:03:59;;;;;;;1.10;0.50;;;4.40;99.90;;;;;;5164485;27;20513;-58
2022/01/06 05:06:26;;;;;;;1.17;0.60;;;4.40;99.90;;;;;;5145384;27;20525;-58
2022/01/06 05:08:53;;;;;;;1.30;0.50;;;4.40;99.90;;;;;;5156115;27;20508;-58
2022/01/06 05:11:20;;;;;;;1.40;0.55;;;4.30;99.90;;;;;;5157369;27;20468;-61
2022/01/06 05:13:48;;;;;;;0.90;0.50;;;4.20;99.90;;;;;;5146870;27;20498;-59
2022/01/06 05:16:15;;;;;;;1.52;0.50;;;4.20;99.90;;;;;;5147885;27;20443;-59
2022/01/06 05:18:43;;;;;;;1.10;0.70;;;4.20;99.90;;;;;;5138509;27;20473;-58
2022/01/06 05:21:09;;;;;;;2.22;0.60;;;4.20;99.90;;;;;;5156659;27;20516;-59
2022/01/06 05:23:38;;;;;;;1.90;0.52;;;4.00;99.90;;;;;;5156545;27;20881;-59
2022/01/06 05:26:05;;;;;;;1.40;0.50;;;4.00;99.90;;;;;;5150735;27;20752;-59
2022/01/06 05:28:32;;;;;;;0.90;0.57;;;4.10;99.90;;;;;;5154117;27;20493;-59
2022/01/06 05:31:01;;;;;;;1.53;0.50;;;4.20;99.90;;;;;;5153685;27;20521;-58
2022/01/06 05:33:28;;;;;;;1.27;0.90;;;4.20;99.90;;;;;;5140705;27;20424;-59
2022/01/06 05:35:55;;;;;;;2.15;0.60;;;4.30;99.90;;;;;;5132368;27;20520;-59
2022/01/06 05:38:22;;;;;;;2.20;0.50;;;4.50;99.90;;;;;;5151854;27;20495;-59
2022/01/06 05:40:49;;;;;;;1.95;0.50;;;4.40;99.90;;;;;;5155291;27;20873;-59
2022/01/06 05:43:19;;;;;;;0.73;0.50;;;4.30;99.90;;;;;;5155585;27;20496;-59
2022/01/06 05:45:46;;;;;;;0.95;0.50;;;4.30;99.90;;;;;;5142508;27;20458;-60
2022/01/06 05:48:14;;;;;;;1.70;0.50;;;4.40;99.90;;;;;;5155623;27;20829;-59
2022/01/06 05:50:41;;;;;;;0.90;0.50;;;4.60;99.90;;;;;;5155621;27;20456;-59
2022/01/06 05:53:08;;;;;;;1.10;0.50;;;4.50;99.90;;;;;;5155283;27;20425;-59
2022/01/06 05:55:35;;;;;;;1.67;0.50;;;4.60;99.90;;;;;;5155458;27;20881;-59
2022/01/06 05:58:02;;;;;;;1.00;0.50;;;4.60;99.90;;;;;;5155932;27;20440;-59
2022/01/06 06:00:29;;;;;;;0.90;0.50;;;4.60;99.90;;;;;;5155503;27;20524;-59
2022/01/06 06:02:56;;;;;;;1.40;0.50;;;4.50;99.90;;;;;;5156436;27;20451;-62
2022/01/06 06:05:24;;;;;;;1.10;0.50;;;4.50;99.90;;;;;;5156872;27;20508;-59
2022/01/06 06:07:51;;;;;;;1.30;0.50;;;4.40;99.90;;;;;;5156125;27;20499;-59
2022/01/06 06:10:18;;;;;;;1.50;0.50;;;4.50;99.90;;;;;;5155911;27;20425;-59
2022/01/06 06:12:45;;;;;;;1.20;0.50;;;4.60;99.90;;;;;;5156788;27;20870;-59
2022/01/06 06:15:12;;;;;;;2.40;0.50;;;4.70;99.90;;;;;;5155670;27;20507;-59
2022/01/06 06:17:39;;;;;;;1.70;0.50;;;4.70;99.90;;;;;;5156313;27;20508;-59
2022/01/06 06:20:07;;;;;;;1.40;0.60;;;4.80;99.90;;;;;;5156246;27;20421;-59
2022/01/06 06:22:35;;;;;;;0.90;0.60;;;4.70;99.90;;;;;;5156262;27;20828;-59
2022/01/06 06:25:02;;;;;;;2.05;0.60;;;4.70;99.90;;;;;;5155242;27;20526;-59
2022/01/06 06:27:29;;;;;;;1.40;0.50;;;4.70;99.90;;;;;;5156306;27;20504;-59
2022/01/06 06:29:56;;;;;;;1.10;0.70;;;4.70;99.90;;;;;;5156380;27;20428;-59
2022/01/06 06:32:23;;;;;;;1.00;0.40;;;4.90;99.90;;;;;;5155792;27;20512;-60
2022/01/06 06:34:50;;;;;;;1.50;0.40;;;4.70;99.90;;;;;;5159520;27;20523;-59
2022/01/06 06:37:18;;;;;;;0.80;0.50;;;4.50;99.90;;;;;;5160717;27;20719;-59
2022/01/06 06:39:47;;;;;;;1.50;0.50;;;4.40;99.90;;;;;;5159203;27;20780;-59
2022/01/06 06:42:13;;;;;;;1.63;0.50;;;4.30;99.90;;;;;;5160093;27;20504;-59
2022/01/06 06:44:40;;;;;;;1.00;0.50;;;4.20;99.90;;;;;;5138599;27;20497;-59
2022/01/06 06:47:07;;;;;;;1.70;0.50;;;4.20;99.90;;;;;;5147045;27;20532;-62
2022/01/06 06:49:36;;;;;;;1.80;0.60;;;4.40;99.90;;;;;;5158136;27;20507;-60
2022/01/06 06:52:06;;;;;;;0.80;0.40;;;4.40;99.90;;;;;;5157485;27;20453;-59
2022/01/06 06:54:33;;;;;;;1.50;0.60;;;4.50;99.90;;;;;;5157384;27;20511;-60
2022/01/06 06:57:01;;;;;;;2.33;0.50;;;4.60;99.90;;;;;;5156796;27;20454;-60
2022/01/06 06:59:28;;;;;;;1.10;0.60;;;4.70;99.90;;;;;;5156075;27;20515;-60
2022/01/06 07:01:55;;;;;;;2.00;0.50;;;4.70;99.90;;;;;;5156623;27;20413;-59
2022/01/06 07:04:22;;;;;;;2.50;0.50;;;4.80;99.90;;;;;;5157518;27;20445;-59
2022/01/06 07:06:49;;;;;;;1.60;0.52;;;4.80;99.90;;;;;;5156038;27;20495;-60
2022/01/06 07:09:16;;;;;;;2.53;0.60;;;4.70;99.90;;;;;;5156326;27;20894;-60
2022/01/06 07:11:43;;;;;;;2.10;0.70;;;4.50;99.90;;;;;;5157398;27;20521;-60
2022/01/06 07:14:11;;;;;;;1.77;0.60;;;4.50;99.90;;;;;;5158134;27;20507;-60
2022/01/06 07:16:38;;;;;;;2.28;0.60;;;4.50;99.90;;;;;;5158567;27;20507;-59
2022/01/06 07:19:05;;;;;;;1.50;0.60;;;4.60;99.90;;;;;;5158038;27;20500;-60
2022/01/06 07:21:32;;;;;;;1.10;0.60;;;4.50;99.90;;;;;;5159067;27;20416;-60
2022/01/06 07:23:59;;;;;;;2.35;0.50;;;4.50;99.90;;;;;;5158518;27;20512;-60
2022/01/06 07:26:26;;;;;;;1.77;0.50;;;4.60;99.90;;;;;;5159871;27;20523;-60
2022/01/06 07:28:53;;;;;;;1.20;0.50;;;4.60;99.90;;;;;;5159162;27;20504;-59
2022/01/06 07:31:21;;;;;;;1.40;0.60;;;4.50;99.90;;;;;;5159678;27;20500;-59
2022/01/06 07:33:48;;;;;;;1.50;0.50;;;4.60;99.90;;;;;;5158237;27;20503;-60
2022/01/06 07:36:15;;;;;;;1.88;0.50;;;4.70;99.90;;;;;;5159491;27;20424;-60
2022/01/06 07:38:42;;;;;;;1.60;0.50;;;4.70;99.90;;;;;;5159437;27;20431;-60
2022/01/06 07:41:08;;;;;;;1.60;0.60;;;4.60;99.90;;;;;;5158301;27;20815;-60
2022/01/06 07:43:35;;;;;;;1.20;0.50;;;4.60;99.90;;;;;;5158343;27;20496;-60
2022/01/06 07:46:04;;;;;;;1.38;0.60;;;4.70;99.90;;;;;;5157503;27;20427;-59
2022/01/06 07:48:47;;;;;;;1.70;0.60;;;4.70;99.90;;;;;;5158064;27;20715;-60
2022/01/06 07:51:14;;;;;;;1.60;0.50;;;4.60;99.90;;;;;;5157606;27;20523;-59
2022/01/06 07:53:41;;;;;;;2.20;0.60;;;4.50;99.90;;;;;;5156258;27;20519;-60
2022/01/06 07:56:09;;;;;;;1.20;0.60;;;4.50;99.90;;;;;;5157433;27;20428;-59
2022/01/06 07:58:36;;;;;;;2.67;0.50;;;4.50;99.90;;;;;;5157667;27;20416;-60
2022/01/06 08:01:03;;;;;;;1.67;0.55;;;4.60;99.90;;;;;;5143871;27;20544;-59
2022/01/06 08:03:29;;;;;;;2.40;0.60;;;4.60;99.90;;;;;;5139000;27;20442;-59
2022/01/06 08:05:58;;;;;;;1.70;0.50;;;4.60;99.90;;;;;;5148919;27;20514;-59
2022/01/06 08:08:25;;;;;;;1.10;0.60;;;4.50;99.90;;;;;;5136742;27;20485;-59
2022/01/06 08:10:51;;;;;;;2.43;0.60;;;4.40;99.90;;;;;;5137423;27;20592;-59
2022/01/06 08:13:18;;;;;;;1.65;0.60;;;4.30;99.90;;;;;;5136446;27;20457;-60
2022/01/06 08:15:45;;;;;;;1.20;0.50;;;4.40;99.90;;;;;;5154903;27;20918;-59
2022/01/06 08:18:12;;;;;;;1.10;0.50;;;4.40;99.90;;;;;;5149743;27;20889;-59
2022/01/06 08:20:39;;;;;;;1.13;0.50;;;4.30;99.90;;;;;;5137170;27;20877;-60
2022/01/06 08:23:08;;;;;;;1.40;0.70;;;4.40;99.90;;;;;;5145180;27;20416;-60
2022/01/06 08:25:35;;;;;;;0.95;0.50;;;4.40;99.90;;;;;;5140573;27;20922;-60
2022/01/06 08:28:03;;;;;;;1.90;0.50;;;4.20;99.90;;;;;;5155717;27;20448;-59
2022/01/06 08:30:30;;;;;;;1.50;0.50;;;4.20;99.90;;;;;;5154168;27;20504;-60
2022/01/06 08:32:57;;;;;;;2.40;0.60;;;4.20;99.90;;;;;;5151681;27;20442;-59
2022/01/06 08:35:26;;;;;;;1.10;0.50;;;4.30;99.90;;;;;;5137554;27;20533;-60
2022/01/06 08:37:54;;;;;;;1.80;0.60;;;4.30;99.90;;;;;;5138437;27;20876;-59
2022/01/06 08:40:22;;;;;;;1.10;0.50;;;4.30;99.90;;;;;;5151736;27;20512;-60
2022/01/06 08:42:49;;;;;;;1.40;0.50;;;4.30;99.90;;;;;;5156114;27;20452;-60
2022/01/06 08:45:17;;;;;;;3.20;0.60;;;4.30;99.90;;;;;;5140367;27;20929;-60
2022/01/06 08:47:45;;;;;;;1.70;0.60;;;4.40;99.90;;;;;;5150227;27;20420;-60
2022/01/06 08:50:12;;;;;;;1.75;0.60;;;4.50;99.90;;;;;;5156573;27;20512;-60
2022/01/06 08:52:40;;;;;;;1.60;0.60;;;4.50;99.90;;;;;;5140167;27;20517;-59
2022/01/06 08:55:08;;;;;;;0.80;0.50;;;4.40;99.90;;;;;;5139675;27;20518;-60
2022/01/06 08:57:37;;;;;;;2.20;0.52;;;4.50;99.90;;;;;;5148974;27;20517;-60
2022/01/06 09:00:09;;;;;;;2.20;0.50;;;4.60;99.90;;;;;;5148104;27;20533;-60
2022/01/06 09:02:35;;;;;;;2.00;0.60;;;4.60;99.90;;;;;;5134926;27;20497;-60
2022/01/06 09:05:05;;;;;;;2.13;0.60;;;4.50;99.90;;;;;;5145921;27;20513;-60
2022/01/06 09:07:33;;;;;;;1.50;0.60;;;4.60;99.90;;;;;;5136202;27;20417;-60
2022/01/06 09:10:00;;;;;;;2.72;0.60;;;4.60;99.90;;;;;;5139273;27;20433;-59
2022/01/06 09:12:26;;;;;;;1.50;0.60;;;4.60;99.90;;;;;;5136205;27;20696;-60
2022/01/06 09:14:55;;;;;;;1.15;0.60;;;4.70;99.90;;;;;;5120731;27;20432;-60
2022/01/06 09:17:22;;;;;;;1.27;0.57;;;4.70;99.90;;;;;;5114540;28;20504;-63
2022/01/06 09:19:49;;;;;;;1.60;0.60;;;4.60;99.90;;;;;;5136140;27;20876;-60
2022/01/06 09:22:16;;;;;;;3.20;0.70;;;4.60;99.90;;;;;;5145804;27;20519;-59
2022/01/06 09:24:44;;;;;;;3.28;0.90;;;4.60;99.90;;;;;;5149424;27;20496;-60
2022/01/06 09:27:11;;;;;;;2.00;0.60;;;4.60;99.90;;;;;;5151706;27;21065;-59
2022/01/06 09:29:38;;;;;;;2.40;0.80;;;4.70;99.90;;;;;;5142093;27;20864;-59
2022/01/06 09:32:07;;;;;;;1.10;0.60;;;4.70;99.90;;;;;;5144641;27;20505;-59
2022/01/06 09:34:34;;;;;;;1.08;0.60;;;4.60;99.90;;;;;;5133404;27;20520;-58
2022/01/06 09:37:00;;;;;;;2.40;0.60;;;4.60;99.90;;;;;;5134192;27;20783;-59
2022/01/06 09:39:27;;;;;;;0.90;0.50;;;4.70;99.90;;;;;;5133492;27;20912;-59
2022/01/06 09:41:54;;;;;;;2.10;0.60;;;4.90;99.90;;;;;;5135053;27;20437;-59
2022/01/06 09:44:22;;;;;;;1.30;0.60;;;4.80;99.90;;;;;;5136098;27;20506;-60
2022/01/06 09:46:49;;;;;;;1.33;0.52;;;4.90;99.90;;;;;;5135283;27;20901;-59
2022/01/06 09:49:17;;;;;;;1.08;0.50;;;5.00;99.90;;;;;;5135294;27;20482;-59
2022/01/06 09:51:46;;;;;;;1.27;0.60;;;5.00;99.90;;;;;;5135297;27;20513;-60
2022/01/06 09:54:13;;;;;;;1.40;0.50;;;5.00;99.90;;;;;;5135435;27;20513;-60
2022/01/06 09:56:41;;;;;;;2.05;0.60;;;5.00;99.90;;;;;;5135356;27;20767;-60
2022/01/06 09:59:08;;;;;;;1.20;0.55;;;5.10;99.90;;;;;;5132292;27;20916;-59
2022/01/06 10:01:35;;;;;;;1.80;0.52;;;5.00;99.90;;;;;;5132918;27;20429;-60
2022/01/06 10:04:02;;;;;;;1.88;0.55;;;5.00;99.90;;;;;;5133093;27;20411;-59
2022/01/06 10:06:30;;;;;;;3.10;0.50;;;5.00;99.90;;;;;;5134358;27;20512;-60
2022/01/06 10:09:01;;;;;;;1.20;0.60;;;5.00;99.90;;;;;;5133914;27;20487;-60
2022/01/06 10:11:29;;;;;;;2.13;0.50;;;5.00;99.90;;;;;;5133836;27;20627;-60
2022/01/06 10:14:04;;;;;;;1.70;0.70;;;5.10;99.90;;;;;;5126026;27;20430;-59
2022/01/06 10:16:31;;;;;;;1.30;0.50;;;5.40;99.90;;;;;;5133242;28;20429;-60
2022/01/06 10:19:04;;;;;;;3.30;0.90;;;6.00;99.90;;;;;;5133562;28;20493;-60
2022/01/06 10:21:36;;;;;;;2.63;0.60;;;6.20;99.90;;;;;;5132816;28;20418;-59
2022/01/06 10:24:07;;;;;;;2.15;0.60;;;6.20;99.90;;;;;;5131428;28;20726;-59
2022/01/06 10:26:35;;;;;;;1.60;0.60;;;6.00;99.90;;;;;;5135292;28;20767;-59
2022/01/06 10:29:04;;;;;;;2.90;0.57;;;6.00;99.90;;;;;;5134628;28;20538;-59
2022/01/06 10:31:31;;;;;;;1.03;0.50;;;5.80;99.90;;;;;;5135764;28;20422;-59
2022/01/06 10:33:59;;;;;;;1.67;0.52;;;5.60;99.90;;;;;;5135642;28;20491;-60
2022/01/06 10:36:30;;;;;;;1.73;0.60;;;5.50;99.90;;;;;;5135285;28;20516;-59
2022/01/06 10:39:01;;;;;;;1.17;0.50;;;5.60;99.90;;;;;;5134736;28;20729;-59
2022/01/06 10:41:29;;;;;;;1.50;0.50;;;5.70;99.90;;;;;;5135439;28;20433;-59
2022/01/06 10:43:58;;;;;;;2.15;0.40;;;5.50;99.90;;;;;;5134604;28;20439;-59
2022/01/06 10:46:33;;;;;;;2.45;0.50;;;5.50;99.90;;;;;;5133501;28;20423;-60
2022/01/06 10:49:02;;;;;;;3.25;0.50;;;5.50;99.90;;;;;;5133266;28;20422;-59
2022/01/06 10:51:34;;;;;;;2.00;0.50;;;5.20;99.90;;;;;;5132708;28;20458;-59
2022/01/06 10:54:04;;;;;;;0.93;0.50;;;5.20;99.90;;;;;;5132774;28;20461;-60
2022/01/06 10:56:31;;;;;;;2.35;0.50;;;5.00;99.90;;;;;;5133591;28;20516;-60
2022/01/06 10:58:59;;;;;;;1.10;0.50;;;5.20;99.90;;;;;;5132468;28;20454;-59
2022/01/06 11:01:26;;;;;;;0.82;0.50;;;5.60;99.90;;;;;;5131432;28;20492;-59
2022/01/06 11:03:53;;;;;;;1.60;0.50;;;5.70;99.90;;;;;;5125084;28;20417;-59
2022/01/06 11:06:20;;;;;;;3.70;0.60;;;5.80;99.90;;;;;;5134068;28;20541;-59
2022/01/06 11:08:51;;;;;;;2.05;0.50;;;5.90;99.90;;;;;;5134501;28;20493;-59
2022/01/06 11:11:42;;;;;;;5.18;0.60;;;6.00;99.90;;;;;;5133899;28;20418;-59
2022/01/06 11:14:14;;;;;;;0.93;0.50;;;6.30;99.90;;;;;;5134878;28;20521;-60
2022/01/06 11:16:43;;;;;;;2.50;0.50;;;6.30;99.90;;;;;;5131909;28;20838;-60
2022/01/06 11:19:12;;;;;;;2.40;0.50;;;6.30;99.90;;;;;;5132158;27;20423;-61
2022/01/06 11:21:41;;;;;;;2.63;0.50;;;6.20;99.90;;;;;;5136582;27;20438;-60
2022/01/06 11:24:14;;;;;;;1.10;0.50;;;6.20;99.90;;;;;;5138257;27;20422;-59
2022/01/06 11:26:44;;;;;;;1.60;0.40;;;6.00;99.90;;;;;;5136957;27;20892;-60
2022/01/06 11:29:13;;;;;;;3.10;0.50;;;6.00;99.90;;;;;;5137114;27;20861;-60
2022/01/06 11:31:42;;;;;;;1.20;0.50;;;5.90;99.90;;;;;;5137478;27;20884;-60
2022/01/06 11:34:15;;;;;;;2.50;0.50;;;5.90;99.90;;;;;;5134664;27;20433;-60
2022/01/06 11:36:42;;;;;;;1.77;0.40;;;6.00;99.90;;;;;;5115967;28;21063;-60
2022/01/06 11:39:21;;;;;;;0.82;0.50;;;5.80;99.90;;;;;;5115114;28;20475;-60
2022/01/06 11:41:51;;;;;;;1.20;0.50;;;5.80;99.90;;;;;;5115191;28;20454;-60
2022/01/06 11:44:19;;;;;;;0.98;0.40;;;5.80;99.90;;;;;;5115561;28;20515;-58
2022/01/06 11:46:49;;;;;;;1.60;0.50;;;5.90;99.90;;;;;;5134993;27;20776;-60
2022/01/06 11:49:31;;;;;;;3.20;0.40;;;5.80;99.90;;;;;;5137110;27;20715;-60
2022/01/06 11:52:14;;;;;;;1.60;0.40;;;5.70;99.90;;;;;;5136116;27;20804;-60
2022/01/06 11:54:53;;;;;;;2.13;0.50;;;5.90;99.90;;;;;;5134862;27;20536;-58
2022/01/06 11:57:32;;;;;;;1.38;0.40;;;6.00;99.90;;;;;;5133906;27;20889;-58
2022/01/06 12:00:01;;;;;;;1.20;0.40;;;6.10;99.90;;;;;;5144235;27;20474;-59
2022/01/06 12:02:30;;;;;;;1.20;0.40;;;6.20;99.90;;;;;;5155652;27;20417;-61
2022/01/06 12:05:03;;;;;;;1.48;0.40;;;6.30;99.90;;;;;;5155526;27;20451;-59
2022/01/06 12:07:31;;;;;;;1.17;0.50;;;6.50;99.90;;;;;;5155882;27;20405;-59
2022/01/06 12:10:00;;;;;;;1.90;0.40;;;6.40;99.90;;;;;;5154305;27;20420;-59
2022/01/06 12:12:39;;;;;;;2.03;0.40;;;6.40;99.90;;;;;;5153573;27;20405;-60
2022/01/06 12:15:11;;;;;;;1.50;0.50;;;6.30;99.90;;;;;;5152907;27;20429;-61
2022/01/06 12:17:44;;;;;;;2.28;0.50;;;6.20;99.90;;;;;;5152826;27;20426;-61
2022/01/06 12:20:11;;;;;;;1.67;0.40;;;6.20;99.90;;;;;;5154047;27;20428;-60
2022/01/06 12:22:43;;;;;;;2.47;0.47;;;5.90;99.90;;;;;;5149011;27;20663;-60
2022/01/06 12:25:13;;;;;;;2.17;0.40;;;6.00;99.90;;;;;;5152426;27;20513;-60
2022/01/06 12:27:49;;;;;;;1.40;0.60;;;6.10;99.90;;;;;;5155907;27;20753;-60
2022/01/06 12:30:19;;;;;;;1.60;0.50;;;6.20;99.90;;;;;;5154503;27;20519;-58
2022/01/06 12:32:57;;;;;;;1.27;0.50;;;6.10;99.90;;;;;;5152299;27;20507;-60
2022/01/06 12:35:42;;;;;;;1.75;0.50;;;6.00;99.90;;;;;;5153252;27;20477;-60
2022/01/06 12:38:12;;;;;;;3.33;0.40;;;5.90;99.90;;;;;;5154051;27;20499;-61
2022/01/06 12:40:43;;;;;;;2.60;0.50;;;5.80;99.90;;;;;;5153204;27;20485;-61
2022/01/06 12:43:19;;;;;;;1.40;0.60;;;5.80;99.90;;;;;;5153943;27;20457;-61
2022/01/06 12:45:48;;;;;;;1.20;0.50;;;5.80;99.90;;;;;;5154106;27;20488;-59
2022/01/06 12:48:15;;;;;;;1.00;0.50;;;5.70;99.90;;;;;;5153716;27;20419;-60
2022/01/06 12:50:47;;;;;;;2.42;0.40;;;5.80;99.90;;;;;;5154775;27;20520;-58
2022/01/06 12:53:26;;;;;;;2.85;0.50;;;5.70;99.90;;;;;;5153737;27;20432;-61
2022/01/06 12:55:53;;;;;;;1.93;0.50;;;5.60;99.90;;;;;;5153992;27;20420;-58
2022/01/06 12:58:30;;;;;;;1.38;0.40;;;5.50;99.90;;;;;;5155283;27;20451;-61
2022/01/06 13:00:59;;;;;;;1.02;0.40;;;5.60;99.90;;;;;;5155142;27;21166;-60
2022/01/06 13:03:37;;;;;;;1.88;0.40;;;5.60;99.90;;;;;;5155132;27;20504;-61
2022/01/06 13:06:07;;;;;;;1.50;0.50;;;5.50;99.90;;;;;;5156536;27;20429;-60
2022/01/06 13:08:45;;;;;;;1.50;0.50;;;5.40;99.90;;;;;;5155112;27;20419;-60
2022/01/06 13:11:12;;;;;;;1.27;0.50;;;5.40;99.90;;;;;;5155435;27;20893;-60